Time;durP1;ratioP1;P1;durP2;ratioP2;P2;SDS_P1;SDS_P2;PMS_P1;PMS_P2;Temp;Humidity;BMP_temperature;BMP_pressure;BME280_temperature;BME280_humidity;BME280_pressure;Samples;Min_cycle;Max_cycle;Signal;HPM_P1;HPM_P2
2022/05/12 00:02:21;;;;;;;8.63;1.80;;;;;;;12.36;79.14;101490.00;4957254;28;20041;-58
2022/05/12 00:04:46;;;;;;;8.35;1.77;;;;;;;12.40;79.26;101499.66;4942761;28;20050;-55
2022/05/12 00:07:12;;;;;;;4.95;1.55;;;;;;;12.34;79.35;101501.28;4961517;28;20069;-57
2022/05/12 00:09:37;;;;;;;7.28;1.90;;;;;;;12.31;79.73;101501.25;4946355;28;20039;-58
2022/05/12 00:12:03;;;;;;;8.45;1.80;;;;;;;12.30;79.61;101502.09;4951760;28;20050;-58
2022/05/12 00:14:28;;;;;;;9.27;1.80;;;;;;;12.26;79.66;101506.38;4958792;28;20066;-57
2022/05/12 00:16:57;;;;;;;5.63;1.67;;;;;;;12.25;79.53;101509.00;4956870;28;20450;-57
2022/05/12 00:19:23;;;;;;;9.43;1.90;;;;;;;12.23;79.47;101508.97;4948958;28;20054;-57
2022/05/12 00:21:48;;;;;;;9.90;2.22;;;;;;;12.23;79.77;101510.69;4954750;28;20042;-58
2022/05/12 00:24:16;;;;;;;6.72;1.88;;;;;;;12.23;79.63;101516.81;4962819;28;20042;-57
2022/05/12 00:26:42;;;;;;;11.45;1.92;;;;;;;12.22;80.06;101527.22;4958295;28;20065;-58
2022/05/12 00:29:08;;;;;;;9.02;1.80;;;;;;;12.25;79.48;101525.56;4954032;28;20042;-58
2022/05/12 00:31:35;;;;;;;9.23;1.80;;;;;;;12.24;79.41;101529.03;4948115;28;20415;-57
2022/05/12 00:34:01;;;;;;;7.53;1.75;;;;;;;12.23;79.75;101532.50;4958115;28;20046;-58
2022/05/12 00:36:27;;;;;;;3.95;1.60;;;;;;;12.21;79.52;101531.56;4938883;28;20043;-57
2022/05/12 00:38:52;;;;;;;4.30;1.80;;;;;;;12.18;79.30;101537.66;4958167;28;20272;-57
2022/05/12 00:41:18;;;;;;;6.75;1.70;;;;;;;12.17;79.54;101543.72;4953994;28;20053;-58
2022/05/12 00:43:55;;;;;;;8.43;1.88;;;;;;;12.12;79.38;101547.13;4940982;28;20034;-58
2022/05/12 00:46:24;;;;;;;6.05;1.80;;;;;;;12.08;79.91;101540.06;4949884;28;20550;-58
2022/05/12 00:48:51;;;;;;;7.90;1.60;;;;;;;12.07;80.01;101546.16;4950714;28;20038;-58
2022/05/12 00:51:48;;;;;;;6.40;2.10;;;;;;;12.05;80.37;101537.41;4949731;28;20077;-59
2022/05/12 00:54:29;;;;;;;7.00;1.90;;;;;;;12.05;80.45;101537.41;4945058;28;20077;-57
2022/05/12 00:57:00;;;;;;;6.03;1.83;;;;;;;12.05;80.86;101538.28;4962098;28;20050;-58
2022/05/12 00:59:33;;;;;;;5.82;2.00;;;;;;;12.06;80.54;101541.78;4953159;28;20092;-59
2022/05/12 01:02:00;;;;;;;7.53;2.20;;;;;;;12.03;80.59;101534.75;4954840;28;21840;-56
2022/05/12 01:04:29;;;;;;;6.20;2.00;;;;;;;11.99;80.41;101535.56;4949781;28;20049;-56
2022/05/12 01:06:54;;;;;;;6.47;2.00;;;;;;;11.99;80.34;101546.00;4956544;28;20529;-58
2022/05/12 01:09:20;;;;;;;6.03;2.00;;;;;;;11.92;80.82;101545.88;4950396;28;20050;-59
2022/05/12 01:11:48;;;;;;;7.72;2.13;;;;;;;11.90;80.90;101547.56;4955715;28;20425;-57
2022/05/12 01:14:23;;;;;;;5.82;2.08;;;;;;;11.89;80.55;101548.44;4960120;28;20459;-57
2022/05/12 01:16:54;;;;;;;3.80;1.63;;;;;;;11.88;80.38;101567.56;4939310;28;20054;-58
2022/05/12 01:19:28;;;;;;;6.63;2.20;;;;;;;11.84;80.94;101556.16;4948840;28;20074;-60
2022/05/12 01:21:54;;;;;;;7.07;2.45;;;;;;;11.82;81.13;101552.66;4955756;28;20048;-57
2022/05/12 01:24:22;;;;;;;5.93;2.38;;;;;;;11.79;81.59;101565.66;4958178;28;20409;-56
2022/05/12 01:26:48;;;;;;;6.03;2.45;;;;;;;11.77;80.89;101563.00;4956929;28;20521;-59
2022/05/12 01:29:14;;;;;;;9.18;2.80;;;;;;;11.74;81.15;101567.31;4951425;28;20133;-57
2022/05/12 01:31:40;;;;;;;6.15;2.90;;;;;;;11.70;81.10;101557.63;4957163;28;20057;-57
2022/05/12 01:34:09;;;;;;;6.88;2.50;;;;;;;11.69;80.67;101564.56;4953371;28;20038;-57
2022/05/12 01:36:35;;;;;;;6.60;2.85;;;;;;;11.68;80.80;101562.81;4959845;28;20480;-57
2022/05/12 01:39:01;;;;;;;6.65;2.90;;;;;;;11.67;80.78;101563.66;4949320;28;20159;-57
2022/05/12 01:41:27;;;;;;;6.50;3.00;;;;;;;11.63;80.79;101564.44;4935941;28;20050;-58
2022/05/12 01:43:52;;;;;;;8.38;2.70;;;;;;;11.60;80.74;101571.31;4960069;28;20137;-58
2022/05/12 01:46:18;;;;;;;5.85;3.20;;;;;;;11.59;81.26;101577.38;4956677;28;20046;-58
2022/05/12 01:48:43;;;;;;;6.85;3.30;;;;;;;11.60;81.41;101579.16;4940541;28;20354;-56
2022/05/12 01:51:10;;;;;;;10.23;3.40;;;;;;;11.60;81.02;101585.25;4960572;28;20887;-57
2022/05/12 01:53:36;;;;;;;7.97;3.50;;;;;;;11.60;81.25;101594.81;4952929;28;20034;-57
2022/05/12 01:56:03;;;;;;;6.93;3.33;;;;;;;11.59;81.29;101587.84;4960605;28;21010;-59
2022/05/12 01:58:28;;;;;;;8.55;3.33;;;;;;;11.60;81.38;101585.25;4958289;28;20088;-57
2022/05/12 02:00:54;;;;;;;8.32;3.67;;;;;;;11.64;80.99;101587.09;4953121;28;20718;-59
2022/05/12 02:03:19;;;;;;;6.90;3.40;;;;;;;11.63;81.22;101585.34;4954777;28;20525;-59
2022/05/12 02:05:47;;;;;;;10.00;3.40;;;;;;;11.63;81.25;101592.28;4943232;28;20441;-58
2022/05/12 02:08:15;;;;;;;10.82;3.53;;;;;;;11.63;80.87;101597.53;4954243;28;20046;-58
2022/05/12 02:10:45;;;;;;;7.50;3.45;;;;;;;11.63;81.00;101606.25;4962157;28;20042;-58
2022/05/12 02:13:11;;;;;;;13.80;4.35;;;;;;;11.63;81.01;101607.97;4963766;28;20062;-57
2022/05/12 02:15:38;;;;;;;9.32;3.75;;;;;;;11.71;81.43;101614.25;4953556;28;20985;-57
2022/05/12 02:18:05;;;;;;;6.78;3.72;;;;;;;11.69;80.78;101608.97;4936728;28;20041;-58
2022/05/12 02:20:30;;;;;;;7.15;3.70;;;;;;;11.67;81.26;101609.78;4953952;28;20388;-57
2022/05/12 02:22:56;;;;;;;7.57;4.07;;;;;;;11.65;81.40;101614.09;4963154;28;20066;-58
2022/05/12 02:25:21;;;;;;;8.90;3.80;;;;;;;11.65;80.74;101614.97;4936426;28;20046;-57
2022/05/12 02:27:47;;;;;;;8.40;3.63;;;;;;;11.66;80.71;101621.06;4954211;28;20590;-58
2022/05/12 02:30:20;;;;;;;8.50;3.50;;;;;;;11.66;80.92;101613.22;4961212;28;20043;-57
2022/05/12 02:32:46;;;;;;;7.93;3.65;;;;;;;11.66;80.79;101624.56;4959501;28;20078;-58
2022/05/12 02:35:11;;;;;;;10.02;3.92;;;;;;;11.61;81.07;101636.66;4956690;28;20133;-57
2022/05/12 02:37:38;;;;;;;9.93;3.90;;;;;;;11.71;80.86;101628.16;4949083;28;20202;-56
2022/05/12 02:40:04;;;;;;;8.70;3.80;;;;;;;11.65;80.70;101633.25;4953146;28;20066;-56
2022/05/12 02:42:29;;;;;;;6.75;3.38;;;;;;;11.64;80.66;101641.06;4957434;28;20165;-57
2022/05/12 02:44:54;;;;;;;8.77;4.00;;;;;;;11.59;80.56;101638.34;4952268;28;20375;-58
2022/05/12 02:47:20;;;;;;;10.07;4.28;;;;;;;11.56;80.98;101643.50;4949890;28;20485;-58
2022/05/12 02:49:46;;;;;;;8.65;4.13;;;;;;;11.56;80.32;101651.34;4951867;28;20069;-56
2022/05/12 02:52:12;;;;;;;10.38;4.00;;;;;;;11.52;80.53;101648.66;4956370;28;20047;-57
2022/05/12 02:54:38;;;;;;;9.15;3.55;;;;;;;11.48;80.52;101654.63;4951389;28;20092;-60
2022/05/12 02:57:04;;;;;;;7.13;3.63;;;;;;;11.43;80.28;101654.53;4948484;28;20424;-55
2022/05/12 02:59:29;;;;;;;8.13;3.90;;;;;;;11.38;80.61;101649.22;4950527;28;20070;-57
2022/05/12 03:01:55;;;;;;;7.35;3.70;;;;;;;11.36;80.42;101660.47;4959401;28;20046;-57
2022/05/12 03:04:21;;;;;;;9.13;4.10;;;;;;;11.32;80.40;101664.75;4957574;28;20050;-58
2022/05/12 03:06:46;;;;;;;10.57;4.30;;;;;;;11.28;80.80;101660.28;4948962;28;20045;-58
2022/05/12 03:09:12;;;;;;;8.60;4.00;;;;;;;11.27;80.65;101663.75;4960164;28;20148;-58
2022/05/12 03:11:37;;;;;;;10.15;4.10;;;;;;;11.25;80.73;101672.41;4951956;28;20516;-56
2022/05/12 03:14:03;;;;;;;8.88;4.15;;;;;;;11.22;80.44;101677.56;4956268;28;20121;-58
2022/05/12 03:16:29;;;;;;;10.55;4.30;;;;;;;11.17;80.55;101682.66;4959681;28;20502;-56
2022/05/12 03:18:54;;;;;;;14.93;4.95;;;;;;;11.13;80.39;101683.44;4950693;28;20854;-57
2022/05/12 03:21:23;;;;;;;9.82;4.55;;;;;;;11.13;80.36;101680.81;4951004;28;20617;-59
2022/05/12 03:23:54;;;;;;;9.07;4.43;;;;;;;11.14;80.80;101679.09;4959257;28;20139;-56
2022/05/12 03:26:24;;;;;;;8.77;4.20;;;;;;;11.13;80.79;101685.16;4950948;28;20557;-57
2022/05/12 03:28:49;;;;;;;9.45;4.00;;;;;;;11.12;80.49;101686.88;4956894;28;20038;-57
2022/05/12 03:31:16;;;;;;;7.68;4.47;;;;;;;11.13;81.06;101693.88;4960553;28;20378;-56
2022/05/12 03:33:41;;;;;;;9.60;4.38;;;;;;;11.09;80.53;101694.66;4922403;28;20038;-58
2022/05/12 03:36:07;;;;;;;8.15;4.20;;;;;;;11.06;80.47;101696.28;4952443;28;20363;-57
2022/05/12 03:38:32;;;;;;;9.65;4.18;;;;;;;11.03;80.69;101704.94;4950534;28;20038;-55
2022/05/12 03:40:58;;;;;;;7.03;4.35;;;;;;;10.99;80.56;101700.47;4956676;28;20038;-57
2022/05/12 03:46:08;;;;;;;11.32;4.10;;;;;;;10.96;80.66;101709.13;4949566;28;20548;-57
2022/05/12 03:48:37;;;;;;;8.70;3.85;;;;;;;10.96;80.53;101713.44;4956666;28;20117;-56
2022/05/12 03:51:04;;;;;;;10.70;4.20;;;;;;;10.94;80.75;101716.00;4951566;28;20042;-56
2022/05/12 03:53:30;;;;;;;8.50;4.20;;;;;;;10.94;80.89;101720.34;4953142;28;20177;-58
2022/05/12 03:55:56;;;;;;;9.07;4.35;;;;;;;10.93;80.87;101719.47;4953720;28;20318;-57
2022/05/12 03:58:21;;;;;;;7.80;4.18;;;;;;;10.94;80.91;101722.97;4960494;28;20030;-57
2022/05/12 04:00:48;;;;;;;8.52;4.03;;;;;;;10.95;80.72;101719.50;4950441;28;20065;-57
2022/05/12 04:03:14;;;;;;;9.10;4.60;;;;;;;10.94;80.81;101715.13;4955529;28;20548;-59
2022/05/12 04:05:40;;;;;;;8.23;3.97;;;;;;;10.95;81.12;101716.91;4950663;28;20112;-58
2022/05/12 04:08:05;;;;;;;8.77;4.15;;;;;;;10.96;80.77;101719.56;4952339;28;20651;-57
2022/05/12 04:10:32;;;;;;;9.45;3.90;;;;;;;10.99;81.15;101734.38;4955251;28;20042;-57
2022/05/12 04:12:58;;;;;;;8.35;3.80;;;;;;;11.02;80.83;101738.81;4948677;28;20434;-56
2022/05/12 04:15:23;;;;;;;9.10;4.22;;;;;;;11.04;80.67;101737.13;4934262;28;20506;-60
2022/05/12 04:18:01;;;;;;;11.77;4.13;;;;;;;11.06;81.30;101735.44;4957982;28;20103;-58
2022/05/12 04:20:29;;;;;;;10.07;4.25;;;;;;;11.09;81.26;101744.22;4955957;28;20624;-59
2022/05/12 04:22:54;;;;;;;8.68;4.47;;;;;;;11.12;81.20;101746.91;4958350;28;20161;-59
2022/05/12 04:25:20;;;;;;;9.13;4.63;;;;;;;11.15;81.18;101748.72;4952242;28;20049;-61
2022/05/12 04:27:46;;;;;;;9.35;4.60;;;;;;;11.22;81.11;101755.88;4958412;28;20136;-57
2022/05/12 04:30:14;;;;;;;10.48;4.47;;;;;;;11.23;81.01;101749.75;4960558;28;20046;-59
2022/05/12 04:32:40;;;;;;;11.85;4.72;;;;;;;11.28;80.98;101746.41;4952638;28;20272;-57
2022/05/12 04:35:11;;;;;;;10.45;4.80;;;;;;;11.39;80.97;101754.53;4963540;28;20563;-58
2022/05/12 04:37:36;;;;;;;10.85;4.63;;;;;;;11.61;81.25;101758.53;4943390;28;20153;-58
2022/05/12 04:40:05;;;;;;;12.75;4.30;;;;;;;11.81;80.95;101761.63;4958701;28;20625;-58
2022/05/12 04:42:30;;;;;;;8.10;4.25;;;;;;;11.90;80.44;101770.53;4960004;28;20085;-59
2022/05/12 04:44:56;;;;;;;10.13;4.30;;;;;;;12.01;79.83;101773.41;4951430;28;20134;-57
2022/05/12 04:47:21;;;;;;;12.40;4.55;;;;;;;12.38;78.95;101775.06;4944984;28;20061;-59
2022/05/12 04:49:46;;;;;;;13.85;4.75;;;;;;;12.86;77.83;101770.78;4958074;28;20049;-57
2022/05/12 04:52:12;;;;;;;7.65;3.55;;;;;;;13.65;74.23;101776.50;4958655;28;20728;-59
2022/05/12 04:54:38;;;;;;;8.50;3.63;;;;;;;14.59;71.51;101775.16;4958695;28;20157;-59
2022/05/12 04:57:04;;;;;;;11.52;4.07;;;;;;;15.44;66.43;101773.34;4937449;28;20129;-59
2022/05/12 04:59:29;;;;;;;14.20;3.72;;;;;;;15.92;63.65;101778.06;4949783;28;20073;-58
2022/05/12 05:01:54;;;;;;;9.18;4.07;;;;;;;15.82;62.93;101777.16;4958083;28;20060;-58
2022/05/12 05:04:20;;;;;;;8.30;3.95;;;;;;;15.54;64.47;101780.47;4960108;28;20117;-59
2022/05/12 05:06:46;;;;;;;8.80;3.88;;;;;;;15.33;65.28;101785.50;4954279;28;20042;-60
2022/05/12 05:09:11;;;;;;;10.10;3.72;;;;;;;15.17;65.94;101784.50;4962431;28;20081;-58
2022/05/12 05:11:37;;;;;;;12.55;4.50;;;;;;;14.90;66.34;101792.09;4953468;28;20448;-59
2022/05/12 05:14:03;;;;;;;12.98;4.20;;;;;;;14.74;66.05;101793.69;4962640;28;20034;-58
2022/05/12 05:16:29;;;;;;;10.52;4.25;;;;;;;14.60;67.18;101790.03;4952994;28;20505;-59
2022/05/12 05:18:54;;;;;;;8.88;4.00;;;;;;;14.39;68.27;101795.03;4955099;28;20053;-58
2022/05/12 05:21:20;;;;;;;9.43;4.30;;;;;;;14.27;68.75;101807.97;4957545;28;20117;-61
2022/05/12 05:23:45;;;;;;;7.15;3.75;;;;;;;14.17;68.88;101809.56;4962815;28;20045;-59
2022/05/12 05:26:11;;;;;;;7.88;3.80;;;;;;;14.13;69.02;101802.53;4958171;28;20153;-57
2022/05/12 05:28:37;;;;;;;11.50;4.15;;;;;;;14.02;69.28;101805.00;4960664;28;20050;-58
2022/05/12 05:31:04;;;;;;;9.77;4.03;;;;;;;13.99;69.24;101810.19;4959089;28;20074;-58
2022/05/12 05:33:30;;;;;;;11.75;4.30;;;;;;;13.97;69.45;101813.63;4953908;28;20050;-57
2022/05/12 05:35:57;;;;;;;6.60;3.67;;;;;;;13.96;69.97;101818.03;4959580;28;20047;-58
2022/05/12 05:38:22;;;;;;;13.85;4.10;;;;;;;13.91;69.75;101811.81;4958823;28;20141;-59
2022/05/12 05:40:48;;;;;;;11.73;3.90;;;;;;;13.92;70.17;101817.94;4952015;28;20124;-59
2022/05/12 05:43:15;;;;;;;8.27;3.95;;;;;;;13.92;69.81;101834.56;4960659;28;20050;-57
2022/05/12 05:45:41;;;;;;;8.27;3.80;;;;;;;13.95;70.04;101826.75;4956481;28;21533;-58
2022/05/12 05:48:07;;;;;;;7.47;3.55;;;;;;;14.07;70.12;101834.78;4958948;28;20065;-58
2022/05/12 05:53:23;;;;;;;9.02;3.70;;;;;;;14.23;69.13;101860.38;4954369;28;20220;-59
2022/05/12 05:55:49;;;;;;;10.48;4.20;;;;;;;14.41;68.97;101857.16;4961983;28;20041;-54
2022/05/12 05:58:15;;;;;;;8.48;3.58;;;;;;;14.72;68.62;101862.78;4960963;28;20057;-59
2022/05/12 06:00:43;;;;;;;9.23;3.40;;;;;;;15.12;66.68;101858.88;4955688;28;20038;-58
2022/05/12 06:03:09;;;;;;;8.85;3.42;;;;;;;15.65;65.13;101862.91;4947296;28;20093;-59
2022/05/12 06:05:35;;;;;;;9.40;3.25;;;;;;;16.69;62.29;101872.38;4935214;28;20395;-58
2022/05/12 06:08:01;;;;;;;7.32;3.17;;;;;;;18.17;58.24;101866.41;4958177;28;20513;-58
2022/05/12 06:10:27;;;;;;;10.77;3.00;;;;;;;19.87;53.30;101872.56;4962086;28;20050;-59
2022/05/12 06:12:53;;;;;;;7.55;2.80;;;;;;;21.08;48.38;101872.06;4958426;28;20156;-58
2022/05/12 06:15:18;;;;;;;6.50;2.75;;;;;;;22.17;45.22;101876.53;4957010;28;20050;-56
2022/05/12 06:17:44;;;;;;;6.03;2.40;;;;;;;23.18;42.15;101877.09;4952934;28;20245;-58
2022/05/12 06:20:10;;;;;;;6.78;2.63;;;;;;;23.24;42.12;101887.59;4953896;28;20051;-59
2022/05/12 06:22:36;;;;;;;5.40;2.13;;;;;;;24.36;39.63;101890.16;4955610;28;20161;-59
2022/05/12 06:25:08;;;;;;;7.28;2.20;;;;;;;24.21;39.17;101883.44;4940358;28;20053;-59
2022/05/12 06:27:34;;;;;;;6.45;2.05;;;;;;;24.68;38.59;101897.25;4946341;28;20043;-57
2022/05/12 06:29:59;;;;;;;4.20;2.17;;;;;;;25.35;36.82;101889.91;4958082;28;20097;-59
2022/05/12 06:32:26;;;;;;;6.57;2.05;;;;;;;26.16;34.94;101888.97;4957256;28;20064;-59
2022/05/12 06:34:52;;;;;;;8.40;2.15;;;;;;;25.55;36.16;101894.59;4961465;28;20046;-60
2022/05/12 06:37:19;;;;;;;6.53;1.90;;;;;;;26.81;34.41;101907.09;4949860;28;20702;-57
2022/05/12 06:39:45;;;;;;;5.97;2.10;;;;;;;26.61;34.58;101904.28;4952652;28;20047;-60
2022/05/12 06:42:12;;;;;;;5.20;1.88;;;;;;;26.46;33.53;101905.72;4957885;28;20518;-60
2022/05/12 06:44:38;;;;;;;4.88;1.80;;;;;;;25.84;34.02;101915.91;4958984;28;20038;-58
2022/05/12 06:47:18;;;;;;;11.20;1.90;;;;;;;26.22;32.78;101914.59;4956761;28;20892;-58
2022/05/12 06:49:49;;;;;;;6.43;1.70;;;;;;;25.78;34.10;101921.44;4950805;28;20402;-59
2022/05/12 06:52:14;;;;;;;4.95;1.60;;;;;;;25.96;32.35;101923.50;4931849;28;20122;-60
2022/05/12 06:54:40;;;;;;;5.20;1.70;;;;;;;26.12;32.52;101911.34;4957039;28;20274;-60
2022/05/12 06:57:06;;;;;;;6.65;1.92;;;;;;;26.08;32.35;101911.53;4955376;28;20043;-59
2022/05/12 06:59:36;;;;;;;8.63;1.90;;;;;;;26.44;33.09;101914.72;4949680;28;20744;-58
2022/05/12 07:02:01;;;;;;;6.80;1.90;;;;;;;25.60;34.65;101911.38;4947514;28;20058;-59
2022/05/12 07:04:29;;;;;;;5.45;1.77;;;;;;;25.38;35.78;101924.47;4961188;28;20177;-60
2022/05/12 07:06:54;;;;;;;6.00;1.77;;;;;;;25.46;34.68;101928.66;4953938;28;20046;-59
2022/05/12 07:09:20;;;;;;;6.60;1.70;;;;;;;25.93;35.04;101933.41;4953618;28;20628;-61
2022/05/12 07:11:46;;;;;;;5.00;1.55;;;;;;;26.45;34.02;101929.84;4952425;28;20057;-59
2022/05/12 07:14:14;;;;;;;6.22;1.77;;;;;;;26.47;33.18;101931.53;4953660;28;20423;-59
2022/05/12 07:16:39;;;;;;;5.78;1.70;;;;;;;26.12;35.41;101938.09;4955431;28;20042;-60
2022/05/12 07:19:05;;;;;;;6.50;1.73;;;;;;;25.64;33.75;101939.72;4954067;28;20515;-58
2022/05/12 07:26:58;;;;;;;6.03;1.40;;;;;;;26.00;32.11;101948.31;4951874;28;20643;-60
2022/05/12 07:29:27;;;;;;;3.75;1.50;;;;;;;25.86;33.88;101946.97;4928806;28;20046;-59
2022/05/12 07:31:53;;;;;;;3.42;1.38;;;;;;;25.73;34.09;101951.00;4952432;28;20050;-58
2022/05/12 07:34:19;;;;;;;7.13;1.45;;;;;;;25.65;33.13;101952.16;4953934;28;20058;-58
2022/05/12 07:36:48;;;;;;;5.28;1.48;;;;;;;25.44;32.72;101953.66;4955766;28;20052;-59
2022/05/12 07:39:15;;;;;;;6.18;1.60;;;;;;;25.21;34.39;101958.84;4957728;28;20065;-59
2022/05/12 07:41:43;;;;;;;5.68;1.60;;;;;;;24.99;35.15;101959.50;4950514;28;20518;-59
2022/05/12 07:44:13;;;;;;;5.15;1.40;;;;;;;24.83;34.10;101966.13;4959973;28;20614;-59
2022/05/12 07:46:38;;;;;;;2.97;1.40;;;;;;;24.77;33.98;101957.41;4954894;28;20936;-59
2022/05/12 07:49:04;;;;;;;5.95;1.55;;;;;;;25.00;34.17;101968.38;4955449;28;20043;-59
2022/05/12 07:51:29;;;;;;;5.15;1.50;;;;;;;24.45;33.92;101967.22;4949973;28;20502;-59
2022/05/12 07:53:55;;;;;;;4.05;1.60;;;;;;;24.35;34.62;101963.03;4947825;28;20050;-58
2022/05/12 07:56:23;;;;;;;13.27;1.50;;;;;;;25.06;34.28;101973.53;4953690;28;20517;-58
2022/05/12 07:58:49;;;;;;;5.47;1.50;;;;;;;24.66;35.71;101976.41;4954725;28;20379;-60
2022/05/12 08:01:17;;;;;;;5.32;1.50;;;;;;;25.18;33.47;101966.94;4949129;28;20149;-58
2022/05/12 08:03:44;;;;;;;3.83;1.38;;;;;;;24.90;33.10;101967.75;4960088;28;20106;-59
2022/05/12 08:06:10;;;;;;;4.20;1.60;;;;;;;25.16;33.57;101968.78;4956218;28;20073;-58
2022/05/12 08:08:36;;;;;;;6.55;1.30;;;;;;;25.99;30.90;101971.47;4959518;28;20615;-59
2022/05/12 08:11:03;;;;;;;4.25;1.20;;;;;;;26.37;31.61;101967.53;4955946;28;20038;-60
2022/05/12 08:13:29;;;;;;;6.20;1.33;;;;;;;26.11;31.06;101967.53;4944154;28;20450;-60
2022/05/12 08:15:55;;;;;;;5.30;1.40;;;;;;;26.27;31.73;101966.13;4955555;28;20765;-58
2022/05/12 08:18:22;;;;;;;5.70;1.40;;;;;;;26.27;31.05;101970.59;4954100;28;20158;-60
2022/05/12 08:20:49;;;;;;;2.03;1.05;;;;;;;26.26;30.99;101969.72;4961523;28;20178;-59
2022/05/12 08:23:16;;;;;;;2.90;1.02;;;;;;;25.50;31.80;101968.59;4959890;28;20054;-58
2022/05/12 08:25:43;;;;;;;4.72;1.40;;;;;;;25.07;34.72;101974.41;4950021;28;20537;-60
2022/05/12 08:28:09;;;;;;;4.85;1.40;;;;;;;24.62;35.76;101982.75;4956859;28;20034;-58
2022/05/12 08:30:34;;;;;;;3.55;1.27;;;;;;;23.59;36.42;101980.00;4954357;28;20395;-58
2022/05/12 08:33:00;;;;;;;2.88;1.10;;;;;;;23.60;35.58;101979.97;4965201;28;20240;-60
2022/05/12 08:35:27;;;;;;;3.55;1.23;;;;;;;22.95;36.18;101981.34;4953051;28;20047;-59
2022/05/12 08:37:53;;;;;;;4.90;1.42;;;;;;;23.11;35.06;101979.25;4960028;28;20046;-60
2022/05/12 08:40:30;;;;;;;6.63;1.50;;;;;;;22.27;36.40;101986.13;4962530;28;20043;-58
2022/05/12 08:43:01;;;;;;;3.28;1.25;;;;;;;22.05;36.81;101990.94;4959113;28;20605;-59
2022/05/12 08:45:27;;;;;;;3.92;1.15;;;;;;;21.53;36.62;101997.91;4932489;28;20060;-58
2022/05/12 08:47:55;;;;;;;4.75;1.35;;;;;;;21.75;37.25;101994.03;4957165;28;20046;-63
2022/05/12 08:50:29;;;;;;;3.78;1.30;;;;;;;21.77;36.87;101995.75;4957482;28;20374;-59
2022/05/12 08:53:05;;;;;;;4.60;1.20;;;;;;;21.73;38.79;101996.72;4950342;28;20587;-60
2022/05/12 08:55:46;;;;;;;3.60;1.08;;;;;;;21.85;37.96;101996.53;4938423;28;20046;-59
2022/05/12 08:58:26;;;;;;;4.22;1.30;;;;;;;21.60;36.82;101996.91;4925184;28;20047;-59
2022/05/12 09:01:09;;;;;;;4.72;1.25;;;;;;;21.35;39.28;101991.06;4949982;28;20120;-58
2022/05/12 09:03:54;;;;;;;4.57;1.40;;;;;;;21.44;40.63;101993.59;4945538;28;20395;-58
2022/05/12 09:06:51;;;;;;;3.53;1.10;;;;;;;21.69;38.77;101991.47;4955502;28;20080;-58
2022/05/12 09:09:33;;;;;;;3.25;1.30;;;;;;;22.06;39.38;102002.44;4920395;28;20298;-57
2022/05/12 09:12:20;;;;;;;5.68;1.83;;;;;;;22.08;37.29;101988.22;4955387;28;20073;-59
2022/05/12 09:15:08;;;;;;;4.50;1.60;;;;;;;22.20;40.84;101989.81;4959338;28;20073;-59
2022/05/12 09:17:43;;;;;;;4.18;1.50;;;;;;;22.33;37.65;101994.00;4944231;28;20105;-60
2022/05/12 09:20:10;;;;;;;8.52;2.20;;;;;;;21.92;38.49;101989.34;4947440;28;20035;-59
2022/05/12 09:22:37;;;;;;;5.93;2.00;;;;;;;22.16;37.72;101996.94;4958755;28;20085;-59
2022/05/12 09:25:05;;;;;;;5.60;1.60;;;;;;;22.40;36.85;101989.44;4962837;28;20494;-60
2022/05/12 09:27:35;;;;;;;5.45;1.70;;;;;;;22.28;38.38;101993.19;4945351;28;20591;-59
2022/05/12 09:30:03;;;;;;;6.78;2.10;;;;;;;21.87;37.28;101991.19;4958248;28;20371;-58
2022/05/12 09:32:34;;;;;;;6.80;1.77;;;;;;;22.02;37.40;101990.09;4956511;28;20234;-59
2022/05/12 09:35:26;;;;;;;6.72;2.15;;;;;;;21.69;37.49;101997.66;4936421;28;20043;-57
2022/05/12 09:37:53;;;;;;;5.82;2.40;;;;;;;21.42;37.57;101998.94;4935598;28;20050;-59
2022/05/12 09:40:39;;;;;;;9.48;4.05;;;;;;;21.27;39.82;102001.78;4936337;28;20040;-59
2022/05/12 09:43:24;;;;;;;4.82;1.88;;;;;;;21.69;37.18;101991.47;4938882;28;20172;-59
2022/05/12 09:46:17;;;;;;;6.22;1.90;;;;;;;21.66;36.45;101986.19;4951645;28;20214;-59
2022/05/12 09:48:45;;;;;;;16.20;9.13;;;;;;;21.75;37.65;101997.56;4929841;28;20672;-60
2022/05/12 09:51:33;;;;;;;8.63;2.80;;;;;;;21.62;35.77;102001.31;4938786;28;20051;-59
2022/05/12 09:54:20;;;;;;;6.25;2.42;;;;;;;21.92;36.41;101997.31;4952564;28;20057;-59
2022/05/12 09:57:00;;;;;;;3.17;1.45;;;;;;;22.00;35.42;102000.75;4936136;28;20039;-60
2022/05/12 09:59:29;;;;;;;6.57;1.67;;;;;;;22.18;36.03;102007.56;4934002;28;20042;-60
2022/05/12 10:02:01;;;;;;;5.95;1.58;;;;;;;22.08;36.39;102012.13;4947377;28;20046;-58
2022/05/12 10:10:13;;;;;;;6.30;1.58;;;;;;;22.17;36.81;102019.06;4928740;28;20053;-59
2022/05/12 10:12:49;;;;;;;5.25;1.75;;;;;;;22.29;36.66;102016.22;4938970;28;20154;-60
2022/05/12 10:15:44;;;;;;;4.60;1.40;;;;;;;22.37;35.01;102013.44;4936202;28;20467;-57
2022/05/12 10:18:28;;;;;;;3.80;1.52;;;;;;;22.58;35.83;102002.41;4935701;28;20569;-59
2022/05/12 10:21:01;;;;;;;4.93;1.70;;;;;;;22.58;35.42;102005.94;4931177;28;20063;-58
2022/05/12 10:23:41;;;;;;;4.22;1.67;;;;;;;22.30;36.00;102007.34;4931653;28;20049;-59
2022/05/12 10:26:15;;;;;;;4.45;1.52;;;;;;;21.91;36.87;102008.81;4927062;28;20035;-60
2022/05/12 10:28:42;;;;;;;;;;;;;;;21.96;35.82;102003.47;4935180;28;20765;-58
2022/05/12 10:31:07;;;;;;;5.05;1.40;;;;;;;21.60;36.54;102011.06;4946720;28;19967;-59
2022/05/12 10:33:56;;;;;;;4.97;1.40;;;;;;;21.33;36.04;102007.03;4952333;28;21084;-59
2022/05/12 10:36:42;;;;;;;4.13;1.50;;;;;;;21.01;37.02;102001.19;4939129;28;21305;-61
2022/05/12 10:39:14;;;;;;;7.82;1.60;;;;;;;21.30;37.89;102015.00;4955230;28;20104;-59
2022/05/12 10:42:02;;;;;;;4.32;1.50;;;;;;;22.10;36.92;102006.78;4952561;28;20291;-57
2022/05/12 10:44:36;;;;;;;4.55;1.40;;;;;;;22.43;37.50;102003.59;4955980;28;20045;-58
2022/05/12 10:47:26;;;;;;;4.03;1.33;;;;;;;22.90;36.93;102001.84;4956844;28;20103;-59
2022/05/12 10:50:23;;;;;;;3.33;1.30;;;;;;;22.86;34.41;101998.38;4953175;28;20561;-59
2022/05/12 10:52:54;;;;;;;3.30;1.23;;;;;;;23.25;35.00;102006.44;4956410;28;20049;-58
2022/05/12 10:55:50;;;;;;;2.40;1.30;;;;;;;22.34;35.25;101993.09;4950230;28;20129;-62
2022/05/12 10:58:30;;;;;;;4.80;1.40;;;;;;;22.34;34.49;101990.44;4946880;28;20493;-58
2022/05/12 11:01:19;;;;;;;5.07;1.38;;;;;;;22.06;35.52;101983.84;4954294;28;20077;-59
2022/05/12 11:03:48;;;;;;;4.07;1.30;;;;;;;22.43;35.09;101986.75;4958942;28;20095;-58
2022/05/12 11:06:17;;;;;;;5.22;1.15;;;;;;;22.51;35.32;101985.69;4948314;28;20061;-58
2022/05/12 11:08:49;;;;;;;5.43;1.30;;;;;;;22.78;34.56;101986.13;4959000;28;20491;-59
2022/05/12 11:11:25;;;;;;;4.80;1.30;;;;;;;22.95;33.96;101990.19;4952966;28;20045;-58
2022/05/12 11:13:56;;;;;;;2.30;1.08;;;;;;;22.81;33.78;101994.06;4941275;28;20152;-59
2022/05/12 11:16:26;;;;;;;3.47;1.20;;;;;;;23.06;33.09;101989.97;4952333;28;20050;-59
2022/05/12 11:19:02;;;;;;;3.38;1.15;;;;;;;22.94;32.96;101984.91;4957324;28;20061;-60
2022/05/12 11:21:29;;;;;;;2.85;1.10;;;;;;;23.17;32.39;101989.78;4947563;28;20051;-57
2022/05/12 11:23:59;;;;;;;3.83;0.90;;;;;;;23.09;31.99;101981.94;4958620;28;20069;-59
2022/05/12 11:26:38;;;;;;;3.80;1.10;;;;;;;23.04;31.28;101990.03;4957703;28;20050;-59
2022/05/12 11:29:44;;;;;;;3.28;1.20;;;;;;;22.97;31.88;101983.06;4937743;28;20073;-59
2022/05/12 11:32:33;;;;;;;2.83;1.13;;;;;;;23.16;32.21;101988.00;4958013;28;20082;-60
2022/05/12 11:35:04;;;;;;;3.42;1.05;;;;;;;22.80;32.65;101984.31;4956027;28;20043;-59
2022/05/12 11:37:53;;;;;;;4.82;1.02;;;;;;;22.78;32.49;101989.66;4953470;28;20291;-59
2022/05/12 11:40:41;;;;;;;2.53;1.10;;;;;;;22.59;31.40;101990.88;4957653;28;20569;-59
2022/05/12 11:46:39;;;;;;;2.47;1.10;;;;;;;23.01;32.99;101989.19;4961022;28;20077;-58
2022/05/12 11:49:25;;;;;;;2.33;0.90;;;;;;;23.04;31.83;102000.66;4959673;28;20042;-58
2022/05/12 11:52:25;;;;;;;5.43;1.30;;;;;;;22.95;32.20;101997.28;4950012;28;20797;-59
2022/05/12 11:55:07;;;;;;;7.18;1.20;;;;;;;23.05;31.48;101986.44;4929451;28;20406;-58
2022/05/12 11:57:38;;;;;;;3.05;1.02;;;;;;;22.71;31.15;101997.75;4942898;28;20046;-57